地図

経路データ

SID SEASON NUMBER BASIN SUBBASIN NAME ISO_TIME NATURE LAT LON WMO_WIND WMO_PRES WMO_AGENCY TRACK_TYPE DIST2LAND LANDFALL IFLAG USA_AGENCY USA_ATCF_ID USA_LAT USA_LON USA_RECORD USA_STATUS USA_WIND USA_PRES USA_SSHS USA_R34_NE USA_R34_SE USA_R34_SW USA_R34_NW USA_R50_NE USA_R50_SE USA_R50_SW USA_R50_NW USA_R64_NE USA_R64_SE USA_R64_SW USA_R64_NW USA_POCI USA_ROCI USA_RMW USA_EYE TOKYO_LAT TOKYO_LON TOKYO_GRADE TOKYO_WIND TOKYO_PRES TOKYO_R50_DIR TOKYO_R50_LONG TOKYO_R50_SHORT TOKYO_R30_DIR TOKYO_R30_LONG TOKYO_R30_SHORT TOKYO_LAND CMA_LAT CMA_LON CMA_CAT CMA_WIND CMA_PRES HKO_LAT HKO_LON HKO_CAT HKO_WIND HKO_PRES NEWDELHI_LAT NEWDELHI_LON NEWDELHI_GRADE NEWDELHI_WIND NEWDELHI_PRES NEWDELHI_CI NEWDELHI_DP NEWDELHI_POCI REUNION_LAT REUNION_LON REUNION_TYPE REUNION_WIND REUNION_PRES REUNION_TNUM REUNION_CI REUNION_RMW REUNION_R34_NE REUNION_R34_SE REUNION_R34_SW REUNION_R34_NW REUNION_R50_NE REUNION_R50_SE REUNION_R50_SW REUNION_R50_NW REUNION_R64_NE REUNION_R64_SE REUNION_R64_SW REUNION_R64_NW BOM_LAT BOM_LON BOM_TYPE BOM_WIND BOM_PRES BOM_TNUM BOM_CI BOM_RMW BOM_R34_NE BOM_R34_SE BOM_R34_SW BOM_R34_NW BOM_R50_NE BOM_R50_SE BOM_R50_SW BOM_R50_NW BOM_R64_NE BOM_R64_SE BOM_R64_SW BOM_R64_NW BOM_ROCI BOM_POCI BOM_EYE BOM_POS_METHOD BOM_PRES_METHOD NADI_LAT NADI_LON NADI_CAT NADI_WIND NADI_PRES WELLINGTON_LAT WELLINGTON_LON WELLINGTON_WIND WELLINGTON_PRES DS824_LAT DS824_LON DS824_STAGE DS824_WIND DS824_PRES TD9636_LAT TD9636_LON TD9636_STAGE TD9636_WIND TD9636_PRES TD9635_LAT TD9635_LON TD9635_WIND TD9635_PRES TD9635_ROCI NEUMANN_LAT NEUMANN_LON NEUMANN_CLASS NEUMANN_WIND NEUMANN_PRES MLC_LAT MLC_LON MLC_CLASS MLC_WIND MLC_PRES USA_GUST BOM_GUST BOM_GUST_PER REUNION_GUST REUNION_GUST_PER USA_SEAHGT USA_SEARAD_NE USA_SEARAD_SE USA_SEARAD_SW USA_SEARAD_NW STORM_SPEED STORM_DIR
1961273N16302 1961 99 NA NA FRANCES 1961-09-30 06:00:00 TS 16.0000 -58.0000 35 hurdat_atl main 676 656 O_____________ hurdat_atl AL071961 16.0000 -58.0000 TS 35 0 8 277
1961273N16302 1961 99 NA NA FRANCES 1961-09-30 09:00:00 TS 16.0476 -58.4000 main 656 649 P_____________ AL071961 16.0476 -58.4000 TS 37 0 8 277
1961273N16302 1961 99 NA NA FRANCES 1961-09-30 12:00:00 TS 16.1000 -58.8000 40 hurdat_atl main 649 638 O_____________ hurdat_atl AL071961 16.1000 -58.8000 TS 40 0 8 278
1961273N16302 1961 99 NA NA FRANCES 1961-09-30 15:00:00 TS 16.1574 -59.2000 main 645 634 P_____________ AL071961 16.1574 -59.2000 TS 42 0 8 277
1961273N16302 1961 99 NA NA FRANCES 1961-09-30 18:00:00 TS 16.2000 -59.6000 45 1005 hurdat_atl main 634 625 O_____________ hurdat_atl AL071961 16.2000 -59.6000 TS 45 1005 0 8 274
1961273N16302 1961 99 NA NA FRANCES 1961-09-30 21:00:00 TS 16.2074 -60.0000 main 625 596 P_____________ AL071961 16.2074 -60.0000 TS 45 0 8 270
1961273N16302 1961 99 NA CS FRANCES 1961-10-01 00:00:00 TS 16.2000 -60.4000 45 hurdat_atl main 596 566 O_____________ hurdat_atl AL071961 16.2000 -60.4000 TS 45 0 7 272
1961273N16302 1961 99 NA CS FRANCES 1961-10-01 03:00:00 TS 16.2347 -60.7533 main 556 518 P_____________ AL071961 16.2347 -60.7533 TS 47 0 8 270
1961273N16302 1961 99 NA CS FRANCES 1961-10-01 06:00:00 TS 16.2000 -61.2000 50 hurdat_atl main 518 485 O_____________ hurdat_atl AL071961 16.2000 -61.2000 TS 50 0 10 261
1961273N16302 1961 99 NA CS FRANCES 1961-10-01 08:00:00 TS 16.1000 -61.6000 50 hurdat_atl main 485 467 O_____________ hurdat_atl AL071961 16.1000 -61.6000 L TS 50 0 12 256
1961273N16302 1961 99 NA CS FRANCES 1961-10-01 09:00:00 TS 16.0640 -61.7859 main 467 428 P_____________ AL071961 16.0640 -61.7859 TS 48 0 10 262
1961273N16302 1961 99 NA CS FRANCES 1961-10-01 12:00:00 TS 16.0000 -62.3000 45 hurdat_atl main 428 393 O_____________ hurdat_atl AL071961 16.0000 -62.3000 TS 45 0 10 262
1961273N16302 1961 99 NA CS FRANCES 1961-10-01 15:00:00 TS 15.9312 -62.8117 main 393 354 P_____________ AL071961 15.9312 -62.8117 TS 42 0 10 264
1961273N16302 1961 99 NA CS FRANCES 1961-10-01 18:00:00 TS 15.9000 -63.3000 40 hurdat_atl main 354 324 O_____________ hurdat_atl AL071961 15.9000 -63.3000 TS 40 0 9 270
1961273N16302 1961 99 NA CS FRANCES 1961-10-01 21:00:00 TS 15.9349 -63.7574 main 317 281 P_____________ AL071961 15.9349 -63.7574 TS 40 0 9 277
1961273N16302 1961 99 NA CS FRANCES 1961-10-02 00:00:00 TS 16.0000 -64.2000 40 1010 hurdat_atl main 281 257 O_____________ hurdat_atl AL071961 16.0000 -64.2000 TS 40 1010 0 9 277
1961273N16302 1961 99 NA CS FRANCES 1961-10-02 03:00:00 TS 16.0424 -64.6501 main 252 225 P_____________ AL071961 16.0424 -64.6501 TS 42 1010 0 9 277
1961273N16302 1961 99 NA CS FRANCES 1961-10-02 06:00:00 TS 16.1000 -65.1000 45 hurdat_atl main 225 214 I_____________ hurdat_atl AL071961 16.1000 -65.1000 TS 45 1010 0 9 277
1961273N16302 1961 99 NA CS FRANCES 1961-10-02 09:00:00 TS 16.1549 -65.5428 main 203 180 P_____________ AL071961 16.1549 -65.5428 TS 45 1010 0 9 283
1961273N16302 1961 99 NA CS FRANCES 1961-10-02 12:00:00 TS 16.3000 -66.0000 45 1011 hurdat_atl main 180 147 O_____________ hurdat_atl AL071961 16.3000 -66.0000 TS 45 1011 0 10 296
1961273N16302 1961 99 NA CS FRANCES 1961-10-02 15:00:00 TS 16.6050 -66.4999 main 148 100 P_____________ AL071961 16.6050 -66.4999 TS 45 1010 0 12 306
1961273N16302 1961 99 NA CS FRANCES 1961-10-02 18:00:00 TS 17.0000 -67.0000 45 1010 hurdat_atl main 101 59 O_____________ hurdat_atl AL071961 17.0000 -67.0000 TS 45 1010 0 12 311
1961273N16302 1961 99 NA CS FRANCES 1961-10-02 21:00:00 TS 17.4091 -67.4721 main 64 54 P_____________ AL071961 17.4091 -67.4721 TS 45 0 12 313
1961273N16302 1961 99 NA CS FRANCES 1961-10-03 00:00:00 TS 17.8000 -67.9000 45 hurdat_atl main 74 53 O_____________ hurdat_atl AL071961 17.8000 -67.9000 TS 45 0 9 308
1961273N16302 1961 99 NA CS FRANCES 1961-10-03 03:00:00 TS 17.9656 -68.2106 main 46 0 P_____________ AL071961 17.9656 -68.2106 TS 45 0 9 311
1961273N16302 1961 99 NA CS FRANCES 1961-10-03 05:00:00 TS 18.3000 -68.5000 45 hurdat_atl main 0 0 O_____________ hurdat_atl AL071961 18.3000 -68.5000 L TS 45 0 16 324
1961273N16302 1961 99 NA NA FRANCES 1961-10-03 06:00:00 TS 18.6000 -68.7000 45 hurdat_atl main 0 0 O_____________ hurdat_atl AL071961 18.6000 -68.7000 TS 45 0 15 327
1961273N16302 1961 99 NA NA FRANCES 1961-10-03 09:00:00 TS 19.1168 -69.0513 main 11 10 P_____________ AL071961 19.1168 -69.0513 TS 47 0 9 329
1961273N16302 1961 99 NA NA FRANCES 1961-10-03 12:00:00 TS 19.4000 -69.2000 50 hurdat_atl main 15 15 O_____________ hurdat_atl AL071961 19.4000 -69.2000 TS 50 0 9 338
1961273N16302 1961 99 NA NA FRANCES 1961-10-03 15:00:00 TS 19.9124 -69.3929 main 67 67 P_____________ AL071961 19.9124 -69.3929 TS 50 0 12 341
1961273N16302 1961 99 NA NA FRANCES 1961-10-03 18:00:00 TS 20.5000 -69.6000 50 hurdat_atl main 108 108 O_____________ hurdat_atl AL071961 20.5000 -69.6000 TS 50 0 13 339
1961273N16302 1961 99 NA NA FRANCES 1961-10-03 21:00:00 TS 21.1426 -69.8924 main 162 162 P_____________ AL071961 21.1426 -69.8924 TS 52 0 14 337
1961273N16302 1961 99 NA NA FRANCES 1961-10-04 00:00:00 TS 21.8000 -70.2000 55 1005 hurdat_atl main 227 227 O_____________ hurdat_atl AL071961 21.8000 -70.2000 TS 55 1005 0 14 338
1961273N16302 1961 99 NA NA FRANCES 1961-10-04 03:00:00 TS 22.4074 -70.4504 main 290 290 P_____________ AL071961 22.4074 -70.4504 TS 57 1003 0 13 339
1961273N16302 1961 99 NA NA FRANCES 1961-10-04 06:00:00 TS 23.0000 -70.7000 60 hurdat_atl main 310 310 I_____________ hurdat_atl AL071961 23.0000 -70.7000 TS 60 1002 0 13 336
1961273N16302 1961 99 NA NA FRANCES 1961-10-04 09:00:00 TS 23.6001 -71.0149 main 337 337 P_____________ AL071961 23.6001 -71.0149 TS 62 1000 0 13 335
1961273N16302 1961 99 NA NA FRANCES 1961-10-04 12:00:00 TS 24.2000 -71.3000 65 999 hurdat_atl main 377 377 O_____________ hurdat_atl AL071961 24.2000 -71.3000 HU 65 999 1 13 341
1961273N16302 1961 99 NA NA FRANCES 1961-10-04 15:00:00 TS 24.8074 -71.4803 main 430 430 P_____________ AL071961 24.8074 -71.4803 HU 65 998 1 12 347
1961273N16302 1961 99 NA NA FRANCES 1961-10-04 18:00:00 TS 25.4000 -71.6000 65 hurdat_atl main 490 490 I_____________ hurdat_atl AL071961 25.4000 -71.6000 HU 65 998 1 12 348
1961273N16302 1961 99 NA NA FRANCES 1961-10-04 21:00:00 TS 25.9650 -71.7521 main 550 550 P_____________ AL071961 25.9650 -71.7521 HU 65 997 1 11 351
1961273N16302 1961 99 NA NA FRANCES 1961-10-05 00:00:00 TS 26.5000 -71.8000 65 997 hurdat_atl main 604 604 O_____________ hurdat_atl AL071961 26.5000 -71.8000 HU 65 997 1 11 5
1961273N16302 1961 99 NA NA FRANCES 1961-10-05 03:00:00 TS 27.0150 -71.6529 main 661 661 P_____________ AL071961 27.0150 -71.6529 HU 70 994 1 11 20
1961273N16302 1961 99 NA NA FRANCES 1961-10-05 06:00:00 TS 27.5000 -71.4000 75 991 hurdat_atl main 709 709 O_____________ hurdat_atl AL071961 27.5000 -71.4000 HU 75 991 1 11 24
1961273N16302 1961 99 NA NA FRANCES 1961-10-05 09:00:00 TS 27.9724 -71.1649 main 749 749 P_____________ AL071961 27.9724 -71.1649 HU 82 982 1 10 26
1961273N16302 1961 99 NA NA FRANCES 1961-10-05 12:00:00 TS 28.4000 -70.9000 90 973 hurdat_atl main 794 794 O_____________ hurdat_atl AL071961 28.4000 -70.9000 HU 90 973 2 9 31
1961273N16302 1961 99 NA NA FRANCES 1961-10-05 15:00:00 TS 28.7649 -70.6221 main 840 840 P_____________ AL071961 28.7649 -70.6221 HU 95 968 2 9 37
1961273N16302 1961 99 NA NA FRANCES 1961-10-05 18:00:00 TS 29.1000 -70.3000 100 963 hurdat_atl main 854 850 O_____________ hurdat_atl AL071961 29.1000 -70.3000 HU 100 963 3 9 42
1961273N16302 1961 99 NA NA FRANCES 1961-10-05 21:00:00 TS 29.4501 -69.9075 main 849 847 P_____________ AL071961 29.4501 -69.9075 HU 102 961 3 10 45
1961273N16302 1961 99 NA NA FRANCES 1961-10-06 00:00:00 TS 29.8000 -69.5000 105 960 hurdat_atl main 854 852 O_____________ hurdat_atl AL071961 29.8000 -69.5000 HU 105 960 3 10 44
1961273N16302 1961 99 NA NA FRANCES 1961-10-06 03:00:00 TS 30.1424 -69.1347 main 860 853 P_____________ AL071961 30.1424 -69.1347 HU 105 3 9 41
1961273N16302 1961 99 NA NA FRANCES 1961-10-06 06:00:00 TS 30.5000 -68.8000 105 hurdat_atl main 854 847 O_____________ hurdat_atl AL071961 30.5000 -68.8000 HU 105 3 9 36
1961273N16302 1961 99 NA NA FRANCES 1961-10-06 09:00:00 TS 30.8923 -68.5070 main 847 840 P_____________ AL071961 30.8923 -68.5070 HU 107 3 10 33
1961273N16302 1961 99 NA NA FRANCES 1961-10-06 12:00:00 TS 31.3000 -68.2000 110 hurdat_atl main 840 834 O_____________ hurdat_atl AL071961 31.3000 -68.2000 HU 110 3 10 36
1961273N16302 1961 99 NA NA FRANCES 1961-10-06 15:00:00 TS 31.6923 -67.8369 main 844 838 P_____________ AL071961 31.6923 -67.8369 HU 110 3 11 40
1961273N16302 1961 99 NA NA FRANCES 1961-10-06 18:00:00 TS 32.1000 -67.4000 110 954 hurdat_atl main 851 851 O_____________ hurdat_atl AL071961 32.1000 -67.4000 HU 110 954 3 12 44
1961273N16302 1961 99 NA NA FRANCES 1961-10-06 21:00:00 TS 32.5350 -66.8722 main 870 870 P_____________ AL071961 32.5350 -66.8722 HU 112 951 3 13 46
1961273N16302 1961 99 NA NA FRANCES 1961-10-07 00:00:00 TS 33.0000 -66.3000 115 948 hurdat_atl main 897 897 O_____________ hurdat_atl AL071961 33.0000 -66.3000 HU 115 948 4 14 46
1961273N16302 1961 99 NA NA FRANCES 1961-10-07 03:00:00 TS 33.4776 -65.7198 main 930 930 P_____________ AL071961 33.4776 -65.7198 HU 115 4 14 43
1961273N16302 1961 99 NA NA FRANCES 1961-10-07 06:00:00 TS 34.0000 -65.2000 115 hurdat_atl main 954 920 O_____________ hurdat_atl AL071961 34.0000 -65.2000 HU 115 4 13 35
1961273N16302 1961 99 NA NA FRANCES 1961-10-07 09:00:00 TS 34.5773 -64.7897 main 910 866 P_____________ AL071961 34.5773 -64.7897 HU 115 4 13 26
1961273N16302 1961 99 NA NA FRANCES 1961-10-07 12:00:00 TS 35.2000 -64.5000 115 hurdat_atl main 866 820 O_____________ hurdat_atl AL071961 35.2000 -64.5000 HU 115 4 13 18
1961273N16302 1961 99 NA NA FRANCES 1961-10-07 15:00:00 TS 35.8349 -64.2972 main 820 763 P_____________ AL071961 35.8349 -64.2972 HU 112 3 13 11
1961273N16302 1961 99 NA NA FRANCES 1961-10-07 18:00:00 TS 36.5000 -64.2000 110 hurdat_atl main 763 708 O_____________ hurdat_atl AL071961 36.5000 -64.2000 HU 110 3 14 5
1961273N16302 1961 99 NA NA FRANCES 1961-10-07 21:00:00 TS 37.2074 -64.1404 main 708 629 P_____________ AL071961 37.2074 -64.1404 HU 107 3 14 0
1961273N16302 1961 99 NA NA FRANCES 1961-10-08 00:00:00 TS 37.9000 -64.2000 105 hurdat_atl main 629 561 O_____________ hurdat_atl AL071961 37.9000 -64.2000 HU 105 3 13 351
1961273N16302 1961 99 NA NA FRANCES 1961-10-08 03:00:00 TS 38.5301 -64.4119 main 561 492 P_____________ AL071961 38.5301 -64.4119 HU 100 3 13 342
1961273N16302 1961 99 NA NA FRANCES 1961-10-08 06:00:00 TS 39.1000 -64.7000 95 hurdat_atl main 492 435 O_____________ hurdat_atl AL071961 39.1000 -64.7000 HU 95 2 12 340
1961273N16302 1961 99 NA NA FRANCES 1961-10-08 09:00:00 TS 39.6073 -64.9286 main 435 378 P_____________ AL071961 39.6073 -64.9286 HU 87 2 11 339
1961273N16302 1961 99 NA NA FRANCES 1961-10-08 12:00:00 TS 40.1000 -65.2000 80 hurdat_atl main 378 322 O_____________ hurdat_atl AL071961 40.1000 -65.2000 HU 80 1 12 335
1961273N16302 1961 99 NA NA FRANCES 1961-10-08 15:00:00 TS 40.6499 -65.5627 main 322 256 P_____________ AL071961 40.6499 -65.5627 HU 75 1 13 331
1961273N16302 1961 99 NA NA FRANCES 1961-10-08 18:00:00 ET 41.2000 -66.0000 70 hurdat_atl main 256 208 O_____________ hurdat_atl AL071961 41.2000 -66.0000 EX 70 -4 13 326
1961273N16302 1961 99 NA NA FRANCES 1961-10-08 21:00:00 ET 41.7151 -66.5001 main 210 179 P_____________ AL071961 41.7151 -66.5001 EX 65 -4 12 323
1961273N16302 1961 99 NA NA FRANCES 1961-10-09 00:00:00 ET 42.2000 -67.0000 60 hurdat_atl main 179 152 O_____________ hurdat_atl AL071961 42.2000 -67.0000 EX 60 -4 12 324
1961273N16302 1961 99 NA NA FRANCES 1961-10-09 03:00:00 ET 42.6950 -67.4597 main 158 134 P_____________ AL071961 42.6950 -67.4597 EX 55 -4 11 327
1961273N16302 1961 99 NA NA FRANCES 1961-10-09 06:00:00 ET 43.1000 -67.8000 50 hurdat_atl main 134 107 O_____________ hurdat_atl AL071961 43.1000 -67.8000 EX 50 -4 7 326
1961273N16302 1961 99 NA NA FRANCES 1961-10-09 09:00:00 ET 43.3144 -68.0348 main 107 87 P_____________ AL071961 43.3144 -68.0348 EX 47 -4 4 340
1961273N16302 1961 99 NA NA FRANCES 1961-10-09 12:00:00 ET 43.5000 -68.0000 45 hurdat_atl main 87 60 O_____________ hurdat_atl AL071961 43.5000 -68.0000 EX 45 -4 6 25
1961273N16302 1961 99 NA NA FRANCES 1961-10-09 15:00:00 ET 43.8332 -67.7018 main 64 47 P_____________ AL071961 43.8332 -67.7018 EX 42 -4 10 46
1961273N16302 1961 99 NA NA FRANCES 1961-10-09 18:00:00 ET 44.2000 -67.0000 40 hurdat_atl main 50 0 O_____________ hurdat_atl AL071961 44.2000 -67.0000 EX 40 -4 14 61
1961273N16302 1961 99 NA NA FRANCES 1961-10-09 21:00:00 ET 44.5120 -65.9736 main 7 0 P_____________ AL071961 44.5120 -65.9736 EX 37 -4 19 71
1961273N16302 1961 99 NA NA FRANCES 1961-10-10 00:00:00 ET 44.8000 -64.5000 35 hurdat_atl main 0 0 O_____________ hurdat_atl AL071961 44.8000 -64.5000 EX 35 -4 24 77
1961273N16302 1961 99 NA NA FRANCES 1961-10-10 03:00:00 ET 45.0670 -62.6164 main 0 0 P_____________ AL071961 45.0670 -62.6164 EX 35 -4 29 80
1961273N16302 1961 99 NA NA FRANCES 1961-10-10 06:00:00 ET 45.3000 -60.5000 35 hurdat_atl main 33 O_____________ hurdat_atl AL071961 45.3000 -60.5000 EX 35 -4 30 81

IBTrACS Databaseについて

本データベースは、米国NOAAが公開する1842年以降の世界の熱帯低気圧のベストトラックデータアーカイブInternational Best Track Archive for Climate Stewardship (IBTrACS)を、ウェブで閲覧しやすい形式に変換したものです。

最終更新日:2021-11-26